createdAt,value
2023-01-19T00:00:45.773Z,6.13
2023-01-19T00:05:48.300Z,5.93
2023-01-19T00:08:15.237Z,6.03
2023-01-19T00:10:44.070Z,6.00
2023-01-19T00:13:10.726Z,5.73
2023-01-19T00:15:37.258Z,5.50
2023-01-19T00:18:04.282Z,5.83
2023-01-19T00:20:35.708Z,5.80
2023-01-19T00:23:03.369Z,5.73
2023-01-19T00:25:29.984Z,5.97
2023-01-19T00:27:57.167Z,5.23
2023-01-19T00:30:23.815Z,5.77
2023-01-19T00:32:50.337Z,5.67
2023-01-19T00:35:17.129Z,5.80
2023-01-19T00:37:46.202Z,6.33
2023-01-19T00:40:14.295Z,6.27
2023-01-19T00:42:41.589Z,5.80
2023-01-19T00:45:10.080Z,6.23
2023-01-19T00:47:37.250Z,5.57
2023-01-19T00:50:04.104Z,6.23
2023-01-19T00:55:01.952Z,5.90
2023-01-19T00:57:29.708Z,6.07
2023-01-19T00:59:56.608Z,6.00
2023-01-19T01:02:23.348Z,5.97
2023-01-19T01:04:54.980Z,5.80
2023-01-19T01:07:22.491Z,5.60
2023-01-19T01:09:49.164Z,5.80
2023-01-19T01:12:15.944Z,6.07
2023-01-19T01:14:42.608Z,5.50
2023-01-19T01:19:42.695Z,5.60
2023-01-19T01:22:10.042Z,5.57
2023-01-19T01:24:36.802Z,5.53
2023-01-19T01:27:03.481Z,5.67
2023-01-19T01:29:30.053Z,6.00
2023-01-19T01:31:56.656Z,5.73
2023-01-19T01:34:23.247Z,6.13
2023-01-19T01:36:49.771Z,5.73
2023-01-19T01:39:16.349Z,6.20
2023-01-19T01:41:42.988Z,6.03
2023-01-19T01:44:50.226Z,5.50
2023-01-19T01:47:30.895Z,5.93
2023-01-19T01:50:17.979Z,6.00
2023-01-19T01:53:06.555Z,5.60
2023-01-19T01:58:15.602Z,6.00
2023-01-19T02:01:01.401Z,5.63
2023-01-19T02:03:28.564Z,5.30
2023-01-19T02:08:59.007Z,5.67
2023-01-19T02:11:44.069Z,6.00
2023-01-19T02:14:10.678Z,5.83
2023-01-19T02:16:38.002Z,5.57
2023-01-19T02:19:07.297Z,5.57
2023-01-19T02:21:56.651Z,5.43
2023-01-19T02:24:24.005Z,5.27
2023-01-19T02:26:51.322Z,5.33
2023-01-19T02:29:21.293Z,5.33
2023-01-19T02:31:48.047Z,5.50
2023-01-19T02:34:19.965Z,5.63
2023-01-19T02:37:02.246Z,5.70
2023-01-19T02:39:37.069Z,5.57
2023-01-19T02:42:08.806Z,5.77
2023-01-19T02:44:37.503Z,6.17
2023-01-19T02:47:04.304Z,5.70
2023-01-19T02:49:31.216Z,5.57
2023-01-19T02:51:58.868Z,5.60
2023-01-19T02:54:39.368Z,5.80
2023-01-19T02:57:22.279Z,5.80
2023-01-19T02:59:55.745Z,4.90
2023-01-19T03:03:02.445Z,5.67
2023-01-19T03:05:41.628Z,5.70
2023-01-19T03:08:33.166Z,6.00
2023-01-19T03:11:10.277Z,5.23
2023-01-19T03:14:02.858Z,5.67
2023-01-19T03:16:48.643Z,5.50
2023-01-19T03:19:21.542Z,5.87
2023-01-19T03:24:35.109Z,5.90
2023-01-19T03:27:25.476Z,5.87
2023-01-19T03:29:57.988Z,5.33
2023-01-19T03:32:30.822Z,5.27
2023-01-19T03:35:01.191Z,5.40
2023-01-19T03:40:01.376Z,5.00
2023-01-19T03:42:28.833Z,5.33
2023-01-19T03:44:56.656Z,5.30
2023-01-19T03:47:24.189Z,5.30
2023-01-19T03:49:53.368Z,5.27
2023-01-19T03:52:28.615Z,5.67
2023-01-19T03:54:55.574Z,5.67
2023-01-19T03:59:53.742Z,6.00
2023-01-19T04:02:20.373Z,5.80
2023-01-19T04:04:47.425Z,5.17
2023-01-19T04:07:14.104Z,5.37
2023-01-19T04:09:40.918Z,5.70
2023-01-19T04:12:07.811Z,5.33
2023-01-19T04:14:34.408Z,6.30
2023-01-19T04:17:00.988Z,5.33
2023-01-19T04:19:27.596Z,6.07
2023-01-19T04:21:55.482Z,5.60
2023-01-19T04:24:22.264Z,5.97
2023-01-19T04:26:51.896Z,5.53
2023-01-19T04:29:18.506Z,5.67
2023-01-19T04:31:45.069Z,5.67
2023-01-19T04:34:11.611Z,5.90
2023-01-19T04:36:38.146Z,5.53
2023-01-19T04:39:05.166Z,6.03
2023-01-19T04:41:32.016Z,6.20
2023-01-19T04:43:58.588Z,5.70
2023-01-19T04:46:25.337Z,5.70
2023-01-19T04:51:23.143Z,5.80
2023-01-19T04:53:49.705Z,5.30
2023-01-19T04:56:16.280Z,5.90
2023-01-19T04:58:42.828Z,6.27
2023-01-19T05:01:09.784Z,6.10
2023-01-19T05:03:36.651Z,5.20
2023-01-19T05:08:40.483Z,6.13
2023-01-19T05:11:07.182Z,6.40
2023-01-19T05:13:33.839Z,5.90
2023-01-19T05:16:00.941Z,5.90
2023-01-19T05:18:27.662Z,6.27
2023-01-19T05:20:54.212Z,6.27
2023-01-19T05:23:20.833Z,6.00
2023-01-19T05:25:47.678Z,6.30
2023-01-19T05:28:15.363Z,6.37
2023-01-19T05:30:41.934Z,6.83
2023-01-19T05:33:08.498Z,6.40
2023-01-19T05:35:36.479Z,5.70
2023-01-19T05:38:03.977Z,6.37
2023-01-19T05:40:30.625Z,6.33
2023-01-19T05:43:01.369Z,5.93
2023-01-19T05:45:28.602Z,5.73
2023-01-19T05:47:55.470Z,6.23
2023-01-19T05:50:22.388Z,6.63
2023-01-19T05:55:21.315Z,6.30
2023-01-19T05:57:47.901Z,6.23
2023-01-19T06:00:15.087Z,6.27
2023-01-19T06:05:12.878Z,6.53
2023-01-19T06:07:39.454Z,5.67
2023-01-19T06:10:06.546Z,5.70
2023-01-19T06:12:33.203Z,5.73
2023-01-19T06:14:59.768Z,5.53
2023-01-19T06:17:26.514Z,6.10
2023-01-19T06:19:53.077Z,5.93
2023-01-19T06:22:19.943Z,6.23
2023-01-19T06:24:46.630Z,6.50
2023-01-19T06:27:13.944Z,6.40
2023-01-19T06:29:41.229Z,6.57
2023-01-19T06:32:07.951Z,6.57
2023-01-19T06:34:34.494Z,6.93
2023-01-19T06:37:01.151Z,6.50
2023-01-19T06:39:27.741Z,6.67
2023-01-19T06:41:54.300Z,5.93
2023-01-19T06:44:20.860Z,6.37
2023-01-19T06:46:49.067Z,6.43
2023-01-19T06:49:15.909Z,6.57
2023-01-19T06:51:42.554Z,6.53
2023-01-19T06:56:40.573Z,6.23
2023-01-19T06:59:07.265Z,7.03
2023-01-19T07:01:34.475Z,6.13
2023-01-19T07:04:01.186Z,6.13
2023-01-19T07:06:27.965Z,6.57
2023-01-19T07:08:54.917Z,6.10
2023-01-19T07:11:29.561Z,6.27
2023-01-19T07:13:59.788Z,5.83
2023-01-19T07:16:26.774Z,5.90
2023-01-19T07:18:53.454Z,6.20
2023-01-19T07:21:20.078Z,6.37
2023-01-19T07:23:50.457Z,6.30
2023-01-19T07:26:20.014Z,6.03
2023-01-19T07:28:48.119Z,6.37
2023-01-19T07:31:15.797Z,6.73
2023-01-19T07:33:42.538Z,6.10
2023-01-19T07:36:09.470Z,6.50
2023-01-19T07:38:36.239Z,6.13
2023-01-19T07:41:06.285Z,6.57
2023-01-19T07:43:34.010Z,6.03
2023-01-19T07:46:02.246Z,6.90
2023-01-19T07:48:29.086Z,6.30
2023-01-19T07:51:11.067Z,6.30
2023-01-19T07:53:40.150Z,6.53
2023-01-19T07:56:07.840Z,6.17
2023-01-19T07:58:34.470Z,7.27
2023-01-19T08:01:01.290Z,5.80
2023-01-19T08:06:02.586Z,6.00
2023-01-19T08:08:33.245Z,6.30
2023-01-19T08:11:00.013Z,6.30
2023-01-19T08:13:27.225Z,5.77
2023-01-19T08:15:54.408Z,6.30
2023-01-19T08:18:21.655Z,5.70
2023-01-19T08:20:48.529Z,5.70
2023-01-19T08:23:15.307Z,5.93
2023-01-19T08:25:44.618Z,5.73
2023-01-19T08:28:13.588Z,5.13
2023-01-19T08:30:40.857Z,5.57
2023-01-19T08:33:08.406Z,5.70
2023-01-19T08:35:37.615Z,5.10
2023-01-19T08:40:39.621Z,5.27
2023-01-19T08:43:17.268Z,5.43
2023-01-19T08:45:49.252Z,5.17
2023-01-19T08:48:17.711Z,5.00
2023-01-19T08:53:25.691Z,4.90
2023-01-19T08:56:03.701Z,4.87
2023-01-19T08:58:30.214Z,4.23
2023-01-19T09:00:59.579Z,4.50
2023-01-19T09:03:26.265Z,4.30
2023-01-19T09:05:52.799Z,4.70
2023-01-19T09:08:19.402Z,4.23
2023-01-19T09:10:49.083Z,4.07
2023-01-19T09:13:16.472Z,4.50
2023-01-19T09:15:43.639Z,4.53
2023-01-19T09:18:13.834Z,4.57
2023-01-19T09:20:42.812Z,4.47
2023-01-19T09:23:11.185Z,4.07
2023-01-19T09:25:41.326Z,4.10
2023-01-19T09:28:09.832Z,4.20
2023-01-19T09:30:38.759Z,3.80
2023-01-19T09:33:07.566Z,4.50
2023-01-19T09:35:38.123Z,4.33
2023-01-19T09:38:07.513Z,3.93
2023-01-19T09:40:36.531Z,4.10
2023-01-19T09:43:26.159Z,4.17
2023-01-19T09:45:57.984Z,4.47
2023-01-19T09:48:40.600Z,4.43
2023-01-19T09:51:13.978Z,4.30
2023-01-19T09:53:59.047Z,4.03
2023-01-19T09:56:29.212Z,4.43
2023-01-19T09:58:55.914Z,4.50
2023-01-19T10:01:51.300Z,4.50
2023-01-19T10:04:40.516Z,4.30
2023-01-19T10:07:10.137Z,4.53
2023-01-19T10:09:51.495Z,4.50
2023-01-19T10:15:42.172Z,4.37
2023-01-19T10:18:31.560Z,4.87
2023-01-19T10:21:12.631Z,4.57
2023-01-19T10:24:17.538Z,4.80
2023-01-19T10:26:49.736Z,5.90
2023-01-19T10:29:28.171Z,4.70
2023-01-19T10:32:22.291Z,4.60
2023-01-19T10:34:50.474Z,4.80
2023-01-19T10:37:33.703Z,4.17
2023-01-19T10:40:09.417Z,4.30
2023-01-19T10:42:37.638Z,3.60
2023-01-19T10:45:14.594Z,3.60
2023-01-19T10:50:32.540Z,3.73
2023-01-19T10:53:05.988Z,8.90
2023-01-19T10:55:37.779Z,5.43
2023-01-19T10:58:05.992Z,4.13
2023-01-19T11:00:43.125Z,3.83
2023-01-19T11:03:23.611Z,3.67
2023-01-19T11:05:50.494Z,3.60
2023-01-19T11:08:24.013Z,3.40
2023-01-19T11:10:59.670Z,3.23
2023-01-19T11:13:26.683Z,3.73
2023-01-19T11:16:05.711Z,7.37
2023-01-19T11:18:37.603Z,3.60
2023-01-19T11:23:46.616Z,4.10
2023-01-19T11:31:37.125Z,4.03
2023-01-19T11:34:33.383Z,4.00
2023-01-19T11:37:04.692Z,3.70
2023-01-19T11:39:44.956Z,3.97
2023-01-19T11:42:13.181Z,3.70
2023-01-19T11:44:58.526Z,3.80
2023-01-19T11:47:35.743Z,3.70
2023-01-19T11:50:24.310Z,3.57
2023-01-19T11:53:04.614Z,3.10
2023-01-19T11:55:42.067Z,3.57
2023-01-19T11:58:16.173Z,3.60
2023-01-19T12:00:52.568Z,3.97
2023-01-19T12:03:33.070Z,3.83
2023-01-19T12:06:05.731Z,3.20
2023-01-19T12:08:43.514Z,3.80
2023-01-19T12:11:16.762Z,3.20
2023-01-19T12:13:45.365Z,3.30
2023-01-19T12:16:21.184Z,3.53
2023-01-19T12:19:03.491Z,3.57
2023-01-19T12:21:30.065Z,3.67
2023-01-19T12:24:23.283Z,4.17
2023-01-19T12:27:02.279Z,3.27
2023-01-19T12:29:33.898Z,3.67
2023-01-19T12:32:18.734Z,3.67
2023-01-19T12:34:54.443Z,3.53
2023-01-19T12:37:41.976Z,3.80
2023-01-19T12:40:22.015Z,3.60
2023-01-19T12:42:59.283Z,4.53
2023-01-19T12:45:34.216Z,3.90
2023-01-19T12:48:02.443Z,4.37
2023-01-19T12:50:37.912Z,3.70
2023-01-19T12:53:15.434Z,3.57
2023-01-19T12:55:46.854Z,4.33
2023-01-19T12:58:22.164Z,3.87
2023-01-19T13:00:50.769Z,3.50
2023-01-19T13:03:17.366Z,4.00
2023-01-19T13:05:43.946Z,3.63
2023-01-19T13:08:11.453Z,4.00
2023-01-19T13:11:00.002Z,4.30
2023-01-19T13:16:18.709Z,4.00
2023-01-19T13:18:56.121Z,4.23
2023-01-19T13:21:33.372Z,4.13
2023-01-19T13:24:02.380Z,4.23
2023-01-19T13:26:37.460Z,4.10
2023-01-19T13:29:22.771Z,4.47
2023-01-19T13:31:49.834Z,4.17
2023-01-19T13:34:20.001Z,4.47
2023-01-19T13:36:51.903Z,4.30
2023-01-19T13:39:29.319Z,4.33
2023-01-19T13:42:00.853Z,4.70
2023-01-19T13:44:37.334Z,4.50
2023-01-19T13:49:46.720Z,4.07
2023-01-19T13:52:21.196Z,4.73
2023-01-19T13:54:49.218Z,4.20
2023-01-19T13:57:29.729Z,5.13
2023-01-19T14:00:12.119Z,5.53
2023-01-19T14:02:40.267Z,4.60
2023-01-19T14:05:23.594Z,4.50
2023-01-19T14:11:02.568Z,4.20
2023-01-19T14:13:31.967Z,4.57
2023-01-19T14:16:15.039Z,3.90
2023-01-19T14:18:41.936Z,4.30
2023-01-19T14:21:13.898Z,3.80
2023-01-19T14:23:47.186Z,3.80
2023-01-19T14:26:56.314Z,4.27
2023-01-19T14:29:32.893Z,4.10
2023-01-19T14:32:20.497Z,4.27
2023-01-19T14:35:12.777Z,4.03
2023-01-19T14:37:47.678Z,4.87
2023-01-19T14:40:20.452Z,4.20
2023-01-19T14:42:55.382Z,5.27
2023-01-19T14:45:34.133Z,6.57
2023-01-19T14:48:04.112Z,4.60
2023-01-19T14:50:39.395Z,4.00
2023-01-19T14:53:14.742Z,4.33
2023-01-19T14:56:02.229Z,4.60
2023-01-19T14:58:32.264Z,4.50
2023-01-19T15:00:59.694Z,4.23
2023-01-19T15:03:43.695Z,5.60
2023-01-19T15:06:15.108Z,5.27
2023-01-19T15:08:42.203Z,4.30
2023-01-19T15:11:35.363Z,4.60
2023-01-19T15:14:03.123Z,4.20
2023-01-19T15:16:33.122Z,3.90
2023-01-19T15:19:00.068Z,4.43
2023-01-19T15:21:26.964Z,4.33
2023-01-19T15:23:58.446Z,4.03
2023-01-19T15:26:26.922Z,4.83
2023-01-19T15:28:55.664Z,6.33
2023-01-19T15:31:23.916Z,6.00
2023-01-19T15:33:50.561Z,5.43
2023-01-19T15:36:19.290Z,7.13
2023-01-19T15:38:46.928Z,6.83
2023-01-19T15:41:24.806Z,5.60
2023-01-19T15:43:51.829Z,5.70
2023-01-19T15:46:22.136Z,5.60
2023-01-19T15:51:23.293Z,6.00
2023-01-19T15:53:50.454Z,5.70
2023-01-19T15:56:25.674Z,5.40
2023-01-19T15:58:53.715Z,5.70
2023-01-19T16:01:23.410Z,5.10
2023-01-19T16:03:50.827Z,5.63
2023-01-19T16:06:18.058Z,5.33
2023-01-19T16:08:45.091Z,5.70
2023-01-19T16:11:15.135Z,5.70
2023-01-19T16:13:46.152Z,5.67
2023-01-19T16:16:16.278Z,5.40
2023-01-19T16:18:43.069Z,6.20
2023-01-19T16:21:09.740Z,5.80
2023-01-19T16:23:36.312Z,5.93
2023-01-19T16:28:46.285Z,5.70
2023-01-19T16:31:14.145Z,5.70
2023-01-19T16:33:40.761Z,5.40
2023-01-19T16:36:25.257Z,5.40
2023-01-19T16:38:52.395Z,5.17
2023-01-19T16:41:19.230Z,5.83
2023-01-19T16:43:51.578Z,5.40
2023-01-19T16:46:21.654Z,5.27
2023-01-19T16:48:48.328Z,5.60
2023-01-19T16:51:15.171Z,5.70
2023-01-19T16:53:41.949Z,5.70
2023-01-19T16:56:11.162Z,5.73
2023-01-19T16:58:38.519Z,5.47
2023-01-19T17:01:09.101Z,5.43
2023-01-19T17:03:36.409Z,5.20
2023-01-19T17:06:03.055Z,5.47
2023-01-19T17:08:29.642Z,5.07
2023-01-19T17:10:56.408Z,5.83
2023-01-19T17:13:23.097Z,8.67
2023-01-19T17:15:49.877Z,15.47
2023-01-19T17:18:16.406Z,16.20
2023-01-19T17:20:42.946Z,6.90
2023-01-19T17:23:09.497Z,5.73
2023-01-19T17:25:36.069Z,7.70
2023-01-19T17:28:02.670Z,6.10
2023-01-19T17:30:29.350Z,6.80
2023-01-19T17:32:56.149Z,11.70
2023-01-19T17:35:22.678Z,8.63
2023-01-19T17:37:53.653Z,6.30
2023-01-19T17:40:20.333Z,6.50
2023-01-19T17:42:46.944Z,6.40
2023-01-19T17:45:13.540Z,5.90
2023-01-19T17:47:40.337Z,6.07
2023-01-19T17:50:07.171Z,5.40
2023-01-19T17:52:33.706Z,6.20
2023-01-19T17:55:00.552Z,6.93
2023-01-19T17:57:27.937Z,7.23
2023-01-19T17:59:54.650Z,7.30
2023-01-19T18:02:24.521Z,8.00
2023-01-19T18:04:52.408Z,8.23
2023-01-19T18:07:19.358Z,11.00
2023-01-19T18:09:46.123Z,10.50
2023-01-19T18:12:13.106Z,9.90
2023-01-19T18:14:40.505Z,9.83
2023-01-19T18:17:07.449Z,10.03
2023-01-19T18:19:34.139Z,10.23
2023-01-19T18:22:00.838Z,8.53
2023-01-19T18:24:27.595Z,8.77
2023-01-19T18:26:55.720Z,7.00
2023-01-19T18:29:22.504Z,7.93
2023-01-19T18:31:49.086Z,8.43
2023-01-19T18:34:15.891Z,10.03
2023-01-19T18:36:42.582Z,9.43
2023-01-19T18:39:09.582Z,9.27
2023-01-19T18:41:42.343Z,9.33
2023-01-19T18:44:10.212Z,9.17
2023-01-19T18:49:11.224Z,8.67
2023-01-19T18:51:39.657Z,7.13
2023-01-19T18:54:06.374Z,7.57
2023-01-19T18:56:33.011Z,7.90
2023-01-19T18:59:01.102Z,8.13
2023-01-19T19:04:08.355Z,7.50
2023-01-19T19:06:35.913Z,7.03
2023-01-19T19:09:03.490Z,6.37
2023-01-19T19:11:30.268Z,6.90
2023-01-19T19:14:01.669Z,6.80
2023-01-19T19:16:29.746Z,6.57
2023-01-19T19:18:56.609Z,6.60
2023-01-19T19:21:25.534Z,7.00
2023-01-19T19:23:56.723Z,6.90
2023-01-19T19:26:25.452Z,10.50
2023-01-19T19:28:52.061Z,16.07
2023-01-19T19:31:20.969Z,10.60
2023-01-19T19:33:48.831Z,13.07
2023-01-19T19:36:15.572Z,15.97
2023-01-19T19:38:43.005Z,17.83
2023-01-19T19:41:12.782Z,10.23
2023-01-19T19:43:39.593Z,8.43
2023-01-19T19:46:08.433Z,8.70
2023-01-19T19:48:37.578Z,7.33
2023-01-19T19:51:17.976Z,7.63
2023-01-19T19:53:46.384Z,7.37
2023-01-19T19:56:13.613Z,7.53
2023-01-19T19:58:42.215Z,7.53
2023-01-19T20:01:17.067Z,7.53
2023-01-19T20:03:44.048Z,7.57
2023-01-19T20:06:20.738Z,7.97
2023-01-19T20:08:49.045Z,11.37
2023-01-19T20:11:19.375Z,10.13
2023-01-19T20:13:47.652Z,10.10
2023-01-19T20:16:17.933Z,10.87
2023-01-19T20:18:48.657Z,9.87
2023-01-19T20:21:25.751Z,8.83
2023-01-19T20:23:53.473Z,9.40
2023-01-19T20:26:25.173Z,8.20
2023-01-19T20:28:52.142Z,9.27
2023-01-19T20:31:24.664Z,8.87
2023-01-19T20:33:52.233Z,8.87
2023-01-19T20:36:19.172Z,8.40
2023-01-19T20:38:45.735Z,7.90
2023-01-19T20:41:13.071Z,7.97
2023-01-19T20:43:39.876Z,7.47
2023-01-19T20:46:06.514Z,7.50
2023-01-19T20:48:33.042Z,8.63
2023-01-19T20:51:08.399Z,7.60
2023-01-19T20:53:35.261Z,7.97
2023-01-19T20:56:11.448Z,7.77
2023-01-19T20:58:38.011Z,7.77
2023-01-19T21:01:16.844Z,8.00
2023-01-19T21:03:43.729Z,8.53
2023-01-19T21:06:10.972Z,21.87
2023-01-19T21:08:37.975Z,13.93
2023-01-19T21:11:05.790Z,12.10
2023-01-19T21:13:33.071Z,10.97
2023-01-19T21:16:00.087Z,7.80
2023-01-19T21:18:28.081Z,6.47
2023-01-19T21:20:55.691Z,6.87
2023-01-19T21:23:22.264Z,7.10
2023-01-19T21:25:53.773Z,6.97
2023-01-19T21:28:21.774Z,6.80
2023-01-19T21:30:48.640Z,7.30
2023-01-19T21:33:16.064Z,6.90
2023-01-19T21:35:56.705Z,7.33
2023-01-19T21:38:26.926Z,7.60
2023-01-19T21:40:54.564Z,8.77
2023-01-19T21:43:21.614Z,7.27
2023-01-19T21:45:49.009Z,7.37
2023-01-19T21:48:16.951Z,7.70
2023-01-19T21:50:43.638Z,7.17
2023-01-19T21:53:11.658Z,8.27
2023-01-19T21:55:42.962Z,7.57
2023-01-19T21:58:09.648Z,7.57
2023-01-19T22:00:36.290Z,7.40
2023-01-19T22:03:04.518Z,6.93
2023-01-19T22:05:36.696Z,7.37
2023-01-19T22:08:04.437Z,6.93
2023-01-19T22:10:30.997Z,6.97
2023-01-19T22:12:57.668Z,7.40
2023-01-19T22:15:24.204Z,7.27
2023-01-19T22:17:50.778Z,7.57
2023-01-19T22:20:17.408Z,7.27
2023-01-19T22:22:43.945Z,7.53
2023-01-19T22:25:10.482Z,7.43
2023-01-19T22:27:37.571Z,7.50
2023-01-19T22:30:04.504Z,7.57
2023-01-19T22:32:31.448Z,7.13
2023-01-19T22:34:58.028Z,7.50
2023-01-19T22:37:24.713Z,7.70
2023-01-19T22:39:53.246Z,7.07
2023-01-19T22:42:19.764Z,6.97
2023-01-19T22:44:46.986Z,7.30
2023-01-19T22:47:13.587Z,7.67
2023-01-19T22:49:40.793Z,7.83
2023-01-19T22:52:07.552Z,8.13
2023-01-19T22:54:34.198Z,8.33
2023-01-19T22:57:00.812Z,7.60
2023-01-19T22:59:27.523Z,8.00
2023-01-19T23:01:54.218Z,7.63
2023-01-19T23:04:20.976Z,7.80
2023-01-19T23:06:50.585Z,7.57
2023-01-19T23:09:17.851Z,8.37
2023-01-19T23:11:48.580Z,7.40
2023-01-19T23:14:17.223Z,8.83
2023-01-19T23:16:44.268Z,8.33
2023-01-19T23:19:12.328Z,8.77
2023-01-19T23:21:38.934Z,7.93
2023-01-19T23:24:05.773Z,8.33
2023-01-19T23:26:38.254Z,8.23
2023-01-19T23:29:08.615Z,7.43
2023-01-19T23:31:36.789Z,7.10
2023-01-19T23:34:08.908Z,7.60
2023-01-19T23:36:37.649Z,7.33
2023-01-19T23:39:07.277Z,7.53
2023-01-19T23:41:34.715Z,8.00
2023-01-19T23:44:01.964Z,7.77
2023-01-19T23:49:03.179Z,8.03
2023-01-19T23:51:31.398Z,7.13
2023-01-19T23:53:58.647Z,7.60
2023-01-19T23:56:30.565Z,8.10
2023-01-19T23:59:04.141Z,8.47
